WZZ2RV LFOB-LWSK
Flight info
| Callsign | WZZ2RV |
|---|---|
| Flight time | N/A |
| Altitude | 35000 |
| Route | BUBLI DCT LUVAL DCT BEGAR DCT TRA DCT SUXAN DCT ROSKA DCT ROTAR DCT LOS DCT MINTU DCT VELIT DCT MEDUX UM867 KOGAT |
| Aircraft | A321/M-SDE3FGHIRWY/LB1 |
Departure
| Time | 2026-04-24 20:45 |
|---|---|
| Airport | Beauvais-Tillé airport (LFOB) |
Arrival
| Time | N/A |
|---|---|
| Airport | Skopje International Airport (LWSK) |
| Time | Latitude | Longitude | Altitude | Speed | Heading |
|---|---|---|---|---|---|
| 2026-04-24 20:16 | 49.45767 | 2.11262 | 347 ft | 0 kts | 346° |
| 2026-04-24 20:34 | 49.45761 | 2.11264 | 346 ft | 3 kts | 343° |
| 2026-04-24 20:34 | 49.45743 | 2.11275 | 353 ft | 3 kts | 321° |
| 2026-04-24 20:35 | 49.45731 | 2.11296 | 353 ft | 3 kts | 288° |
| 2026-04-24 20:35 | 49.45729 | 2.11324 | 351 ft | 3 kts | 256° |
| 2026-04-24 20:35 | 49.45736 | 2.11351 | 355 ft | 3 kts | 233° |
| 2026-04-24 20:35 | 49.45743 | 2.11366 | 355 ft | 0 kts | 221° |
| 2026-04-24 20:39 | 49.45743 | 2.11365 | 356 ft | 1 kts | 221° |
| 2026-04-24 20:39 | 49.45724 | 2.11340 | 354 ft | 6 kts | 221° |
| 2026-04-24 20:39 | 49.45693 | 2.11275 | 350 ft | 8 kts | 268° |
| 2026-04-24 20:40 | 49.45718 | 2.11201 | 349 ft | 7 kts | 303° |
| 2026-04-24 20:40 | 49.45746 | 2.11137 | 352 ft | 7 kts | 303° |
| 2026-04-24 20:40 | 49.45773 | 2.11074 | 353 ft | 7 kts | 303° |
| 2026-04-24 20:40 | 49.45797 | 2.11015 | 354 ft | 5 kts | 289° |
| 2026-04-24 20:41 | 49.45780 | 2.10977 | 358 ft | 1 kts | 211° |
| 2026-04-24 20:41 | 49.45768 | 2.10970 | 353 ft | 0 kts | 206° |
| 2026-04-24 20:43 | 49.45763 | 2.10966 | 352 ft | 2 kts | 206° |
| 2026-04-24 20:43 | 49.45740 | 2.10949 | 356 ft | 5 kts | 206° |
| 2026-04-24 20:43 | 49.45694 | 2.10913 | 351 ft | 9 kts | 207° |
| 2026-04-24 20:44 | 49.45645 | 2.10861 | 356 ft | 7 kts | 203° |
| 2026-04-24 20:44 | 49.45612 | 2.10894 | 352 ft | 0 kts | 123° |
| 2026-04-24 20:44 | 49.45611 | 2.10894 | 352 ft | 3 kts | 123° |
| 2026-04-24 20:45 | 49.45433 | 2.11307 | 351 ft | 88 kts | 124° |
| 2026-04-24 20:45 | 49.44963 | 2.12387 | 328 ft | 154 kts | 123° |
| 2026-04-24 20:45 | 49.44351 | 2.13836 | 986 ft | 154 kts | 113° |
| 2026-04-24 20:45 | 49.43971 | 2.15350 | 1873 ft | 147 kts | 99° |
| 2026-04-24 20:46 | 49.43880 | 2.16859 | 2591 ft | 142 kts | 88° |
| 2026-04-24 20:46 | 49.43972 | 2.18462 | 2863 ft | 161 kts | 85° |
| 2026-04-24 20:46 | 49.44071 | 2.20310 | 3068 ft | 184 kts | 86° |
| 2026-04-24 20:46 | 49.44175 | 2.22382 | 3263 ft | 206 kts | 86° |
| 2026-04-24 20:47 | 49.44284 | 2.24701 | 3412 ft | 230 kts | 86° |
| 2026-04-24 20:47 | 49.44405 | 2.27289 | 3667 ft | 252 kts | 86° |
| 2026-04-24 20:47 | 49.44532 | 2.30022 | 4299 ft | 259 kts | 86° |
| 2026-04-24 20:47 | 49.44663 | 2.32799 | 5018 ft | 263 kts | 86° |
| 2026-04-24 20:48 | 49.44678 | 2.35637 | 5688 ft | 268 kts | 99° |
| 2026-04-24 20:48 | 49.44024 | 2.38326 | 6381 ft | 272 kts | 119° |
| 2026-04-24 20:48 | 49.43093 | 2.40830 | 7043 ft | 275 kts | 119° |
| 2026-04-24 20:48 | 49.42086 | 2.43360 | 7703 ft | 279 kts | 127° |
| 2026-04-24 20:49 | 49.40870 | 2.45706 | 8374 ft | 283 kts | 128° |
| 2026-04-24 20:49 | 49.39609 | 2.48067 | 9057 ft | 287 kts | 129° |
| 2026-04-24 20:49 | 49.38335 | 2.50432 | 9713 ft | 291 kts | 129° |
| 2026-04-24 20:49 | 49.37031 | 2.52842 | 10343 ft | 295 kts | 129° |
| 2026-04-24 20:50 | 49.35677 | 2.55348 | 10561 ft | 315 kts | 129° |
| 2026-04-24 20:50 | 49.34230 | 2.58025 | 10681 ft | 337 kts | 129° |
| 2026-04-24 20:50 | 49.32694 | 2.60862 | 10978 ft | 351 kts | 129° |
| 2026-04-24 20:50 | 49.31130 | 2.63761 | 11539 ft | 355 kts | 129° |
| 2026-04-24 20:51 | 49.29550 | 2.66693 | 12146 ft | 359 kts | 129° |
| 2026-04-24 20:51 | 49.27952 | 2.69657 | 12754 ft | 362 kts | 129° |
| 2026-04-24 20:51 | 49.26350 | 2.72622 | 13380 ft | 365 kts | 129° |
| 2026-04-24 20:51 | 49.24711 | 2.75646 | 13998 ft | 368 kts | 129° |